Time;durP1;ratioP1;P1;durP2;ratioP2;P2;SDS_P1;SDS_P2;PMS_P1;PMS_P2;Temp;Humidity;BMP_temperature;BMP_pressure;BME280_temperature;BME280_humidity;BME280_pressure;Samples;Min_cycle;Max_cycle;Signal;HPM_P1;HPM_P2
2023/12/25 00:01:11;;;;;;;5.97;3.55;;;7.50;99.90;;;;;;5063077;28;20062;-73
2023/12/25 00:03:37;;;;;;;5.22;3.30;;;7.30;99.90;;;;;;5081156;28;20020;-73
2023/12/25 00:06:03;;;;;;;6.15;3.72;;;7.40;99.90;;;;;;5080976;28;20149;-72
2023/12/25 00:08:28;;;;;;;7.00;4.03;;;7.40;99.90;;;;;;5080808;28;20027;-71
2023/12/25 00:10:54;;;;;;;9.05;4.40;;;7.40;99.90;;;;;;5080682;28;20020;-71
2023/12/25 00:13:20;;;;;;;9.10;5.72;;;7.30;99.90;;;;;;5080134;28;20020;-72
2023/12/25 00:15:45;;;;;;;7.75;4.30;;;7.20;99.90;;;;;;5062708;28;20035;-72
2023/12/25 00:18:11;;;;;;;9.38;5.15;;;;;;;;;;5080812;28;20028;-75
2023/12/25 00:20:40;;;;;;;9.65;4.70;;;;;;;;;;5080653;28;20343;-72
2023/12/25 00:23:06;;;;;;;7.25;4.40;;;7.40;99.90;;;;;;5080815;28;20058;-73
2023/12/25 00:25:32;;;;;;;10.68;5.20;;;;;;;;;;5080687;28;20024;-72
2023/12/25 00:27:57;;;;;;;9.38;5.30;;;7.60;99.90;;;;;;5080894;28;20024;-71
2023/12/25 00:30:23;;;;;;;8.40;5.60;;;;;;;;;;5079529;28;20253;-72
2023/12/25 00:32:49;;;;;;;8.50;5.28;;;7.00;99.90;;;;;;5080651;28;20048;-73
2023/12/25 00:35:14;;;;;;;9.68;6.20;;;7.10;99.90;;;;;;5080908;28;20035;-72
2023/12/25 00:37:40;;;;;;;10.15;5.68;;;7.20;99.90;;;;;;5080621;28;20019;-73
2023/12/25 00:40:07;;;;;;;11.60;5.85;;;7.50;99.90;;;;;;5080692;28;20012;-73
2023/12/25 00:42:33;;;;;;;8.40;5.40;;;7.30;99.90;;;;;;5080710;28;20020;-73
2023/12/25 00:44:59;;;;;;;9.63;6.05;;;;;;;;;;5080650;28;20084;-73
2023/12/25 00:47:25;;;;;;;7.57;4.97;;;;;;;;;;5080580;28;20024;-73
2023/12/25 00:49:50;;;;;;;7.18;4.45;;;7.40;99.90;;;;;;5080522;28;20031;-73
2023/12/25 00:52:17;;;;;;;8.88;4.90;;;7.70;99.90;;;;;;5080651;28;20103;-73
2023/12/25 00:54:43;;;;;;;9.63;5.30;;;7.70;99.90;;;;;;5080444;28;20063;-72
2023/12/25 00:57:09;;;;;;;12.15;5.68;;;7.60;99.90;;;;;;5080366;28;20052;-73
2023/12/25 00:59:35;;;;;;;12.32;5.15;;;8.00;99.90;;;;;;5080497;28;20013;-72
2023/12/25 01:02:01;;;;;;;8.52;4.82;;;7.40;99.90;;;;;;5080336;28;20203;-76
2023/12/25 01:04:26;;;;;;;8.05;4.97;;;7.50;99.90;;;;;;5080471;28;20340;-74
2023/12/25 01:06:52;;;;;;;5.57;3.85;;;7.30;99.90;;;;;;5079090;28;20028;-74
2023/12/25 01:09:18;;;;;;;8.60;5.03;;;7.30;99.90;;;;;;5080616;28;20321;-80
2023/12/25 01:11:44;;;;;;;7.93;5.00;;;;;;;;;;5080939;28;20383;-80
2023/12/25 01:14:10;;;;;;;9.05;5.20;;;8.10;99.90;;;;;;5081051;28;20029;-79
2023/12/25 01:16:37;;;;;;;8.10;5.65;;;7.60;99.90;;;;;;5080550;28;20052;-78
2023/12/25 01:19:03;;;;;;;8.05;5.65;;;7.50;99.90;;;;;;5080554;28;20089;-78
2023/12/25 01:21:29;;;;;;;11.25;5.72;;;7.50;99.90;;;;;;5079444;28;20028;-80
2023/12/25 01:23:55;;;;;;;7.13;4.53;;;;;;;;;;5080813;28;20237;-75
2023/12/25 01:26:21;;;;;;;6.50;4.00;;;7.50;99.90;;;;;;5084420;28;20065;-78
2023/12/25 01:28:46;;;;;;;7.68;4.30;;;7.70;99.90;;;;;;5066606;28;20020;-73
2023/12/25 01:31:12;;;;;;;7.45;3.92;;;7.70;99.90;;;;;;5084159;28;20027;-72
2023/12/25 01:33:38;;;;;;;5.15;3.45;;;7.70;99.90;;;;;;5084308;28;20193;-75
2023/12/25 01:36:04;;;;;;;6.07;3.33;;;;;;;;;;5083941;28;20036;-72
2023/12/25 01:38:29;;;;;;;5.22;3.42;;;8.10;99.90;;;;;;5084190;28;20047;-74
2023/12/25 01:40:56;;;;;;;9.48;4.05;;;;;;;;;;5083952;28;20032;-73
2023/12/25 01:43:21;;;;;;;6.28;4.20;;;8.40;99.90;;;;;;5102287;28;20020;-76
2023/12/25 01:45:47;;;;;;;9.43;4.38;;;8.60;99.90;;;;;;5104133;28;20338;-75
2023/12/25 01:48:13;;;;;;;8.18;4.78;;;8.50;98.70;;;;;;5104398;28;20044;-74
2023/12/25 01:50:39;;;;;;;8.77;3.97;;;8.40;98.10;;;;;;5104218;28;20027;-73
2023/12/25 01:53:05;;;;;;;7.70;4.35;;;8.60;99.90;;;;;;5085768;28;20031;-71
2023/12/25 01:55:31;;;;;;;5.78;3.60;;;8.60;99.90;;;;;;5104035;28;20028;-72
2023/12/25 01:57:57;;;;;;;9.68;4.30;;;8.50;99.90;;;;;;5085831;28;20027;-72
2023/12/25 02:00:23;;;;;;;6.35;3.20;;;8.60;99.90;;;;;;5104118;28;20563;-74
2023/12/25 02:02:49;;;;;;;7.38;4.13;;;;;;;;;;5085810;28;20024;-73
2023/12/25 02:05:15;;;;;;;7.00;4.47;;;8.70;99.90;;;;;;5103815;28;20028;-73
2023/12/25 02:07:43;;;;;;;8.15;4.20;;;8.90;96.10;;;;;;5103877;28;20042;-76
2023/12/25 02:10:09;;;;;;;4.10;2.67;;;8.70;99.00;;;;;;5103947;28;20020;-73
2023/12/25 02:12:36;;;;;;;5.00;2.53;;;8.90;98.20;;;;;;5103616;28;20223;-74
2023/12/25 02:15:03;;;;;;;6.18;2.72;;;8.90;97.40;;;;;;5085663;28;20256;-78
2023/12/25 02:17:30;;;;;;;5.68;2.70;;;8.90;97.10;;;;;;5103681;28;20024;-77
2023/12/25 02:19:56;;;;;;;4.97;3.28;;;9.00;92.90;;;;;;5103690;28;20312;-77
2023/12/25 02:22:22;;;;;;;3.10;2.10;;;9.00;97.10;;;;;;5103601;28;20028;-76
2023/12/25 02:25:02;;;;;;;5.57;2.90;;;9.60;97.30;;;;;;5103561;28;20085;-74
2023/12/25 02:27:29;;;;;;;3.85;2.53;;;9.00;97.80;;;;;;5103398;28;20012;-72
2023/12/25 02:29:55;;;;;;;5.72;3.10;;;9.50;98.20;;;;;;5103796;28;20028;-74
2023/12/25 02:32:21;;;;;;;3.85;2.75;;;;;;;;;;5103368;28;20288;-74
2023/12/25 02:34:47;;;;;;;6.57;2.53;;;9.30;96.30;;;;;;5103200;28;20034;-71
2023/12/25 02:37:14;;;;;;;3.80;2.25;;;9.50;98.30;;;;;;5102420;28;20031;-73
2023/12/25 02:39:40;;;;;;;4.13;1.90;;;9.20;99.90;;;;;;5103276;28;20028;-73
2023/12/25 02:42:05;;;;;;;3.05;2.15;;;9.50;99.90;;;;;;5103073;28;20389;-72
2023/12/25 02:44:31;;;;;;;3.67;1.80;;;9.80;99.90;;;;;;5103211;28;20027;-72
2023/12/25 02:46:57;;;;;;;3.97;2.17;;;9.90;99.90;;;;;;5102976;28;20240;-75
2023/12/25 02:49:22;;;;;;;2.85;1.55;;;9.80;99.90;;;;;;5102912;28;20031;-75
2023/12/25 02:51:48;;;;;;;5.07;2.20;;;9.80;99.90;;;;;;5084763;28;20103;-72
2023/12/25 02:54:14;;;;;;;2.05;1.65;;;9.80;98.30;;;;;;5084911;28;20023;-76
2023/12/25 02:56:40;;;;;;;3.83;2.80;;;9.80;99.90;;;;;;5102902;28;20032;-76
2023/12/25 02:59:06;;;;;;;5.18;2.00;;;9.90;99.90;;;;;;5090855;28;20028;-75
2023/12/25 03:01:31;;;;;;;4.53;2.20;;;10.00;99.90;;;;;;5102917;28;20104;-75
2023/12/25 03:03:57;;;;;;;3.67;1.60;;;9.90;99.90;;;;;;5103035;28;20070;-73
2023/12/25 03:06:23;;;;;;;6.47;2.40;;;10.00;99.90;;;;;;5102755;28;20027;-73
2023/12/25 03:08:48;;;;;;;2.00;1.38;;;10.10;99.90;;;;;;5102655;28;20016;-73
2023/12/25 03:11:14;;;;;;;1.10;0.90;;;10.50;99.90;;;;;;5102342;28;20103;-73
2023/12/25 03:13:40;;;;;;;3.33;0.82;;;10.50;99.90;;;;;;5102756;28;20537;-72
2023/12/25 03:16:07;;;;;;;3.25;1.20;;;11.00;99.90;;;;;;5102545;28;20063;-72
2023/12/25 03:18:32;;;;;;;3.13;1.20;;;10.90;99.90;;;;;;5102618;28;20097;-71
2023/12/25 03:20:58;;;;;;;0.98;0.63;;;11.20;99.90;;;;;;5102366;28;20052;-72
2023/12/25 03:23:24;;;;;;;1.55;0.88;;;11.20;99.90;;;;;;5102494;28;20258;-70
2023/12/25 03:25:49;;;;;;;0.85;0.73;;;11.40;99.90;;;;;;5102562;28;20024;-73
2023/12/25 03:28:15;;;;;;;0.90;0.63;;;11.60;99.90;;;;;;5102261;28;20278;-72
2023/12/25 03:30:41;;;;;;;1.98;0.50;;;11.50;99.90;;;;;;5102340;28;20160;-72
2023/12/25 03:33:07;;;;;;;2.53;1.00;;;11.40;99.90;;;;;;5102205;28;20024;-74
2023/12/25 03:35:34;;;;;;;2.67;1.20;;;11.50;99.90;;;;;;5102398;28;20040;-72
2023/12/25 03:37:59;;;;;;;7.57;0.77;;;11.60;99.90;;;;;;5102820;28;20024;-80
2023/12/25 03:40:25;;;;;;;3.08;1.25;;;11.30;99.90;;;;;;5102950;28;20296;-83
2023/12/25 03:42:52;;;;;;;1.58;1.10;;;11.10;99.90;;;;;;5084376;28;20036;-74
2023/12/25 03:45:18;;;;;;;1.70;1.45;;;11.00;99.90;;;;;;5101887;28;20091;-74
2023/12/25 03:47:44;;;;;;;1.63;1.02;;;11.00;99.90;;;;;;5101579;28;20082;-73
2023/12/25 03:50:10;;;;;;;1.40;0.85;;;11.00;99.90;;;;;;5083229;28;20026;-72
2023/12/25 03:52:35;;;;;;;3.13;1.67;;;11.00;99.90;;;;;;5102017;28;20023;-72
2023/12/25 03:55:03;;;;;;;1.10;0.80;;;10.90;99.90;;;;;;5101732;28;20544;-72
2023/12/25 03:57:28;;;;;;;3.25;1.55;;;11.10;99.90;;;;;;5101545;28;20032;-71
2023/12/25 03:59:54;;;;;;;1.85;0.90;;;11.10;99.90;;;;;;5101722;28;20027;-71
2023/12/25 04:02:20;;;;;;;0.70;0.63;;;11.30;99.90;;;;;;5101903;28;20323;-71
2023/12/25 04:04:46;;;;;;;1.60;0.75;;;11.20;99.90;;;;;;5083371;28;20173;-72
2023/12/25 04:07:11;;;;;;;3.78;1.40;;;11.30;99.90;;;;;;5101749;28;20032;-71
2023/12/25 04:09:38;;;;;;;1.50;0.98;;;11.30;99.90;;;;;;5101522;28;20020;-71
2023/12/25 04:12:04;;;;;;;2.05;1.27;;;11.20;99.90;;;;;;5101062;28;20396;-71
2023/12/25 04:14:30;;;;;;;1.63;1.15;;;11.20;99.90;;;;;;5101581;28;20095;-72
2023/12/25 04:16:56;;;;;;;1.88;0.80;;;11.30;99.90;;;;;;5101350;28;20032;-71
2023/12/25 04:19:22;;;;;;;3.40;0.77;;;11.50;99.90;;;;;;5101400;28;20023;-72
2023/12/25 04:21:48;;;;;;;0.70;0.50;;;11.50;99.90;;;;;;5101192;28;20113;-71
2023/12/25 04:24:15;;;;;;;0.80;0.55;;;11.60;99.90;;;;;;5101539;28;20027;-71
2023/12/25 04:26:41;;;;;;;4.32;0.50;;;11.60;99.90;;;;;;5101452;28;20016;-71
2023/12/25 04:29:06;;;;;;;0.68;0.68;;;11.70;99.90;;;;;;5101284;28;20197;-71
2023/12/25 04:31:32;;;;;;;0.90;0.70;;;11.70;99.90;;;;;;5101163;28;20035;-71
2023/12/25 04:33:58;;;;;;;0.52;0.52;;;11.90;99.90;;;;;;5101249;28;20027;-71
2023/12/25 04:36:23;;;;;;;1.45;0.60;;;11.80;99.90;;;;;;5101049;28;20103;-71
2023/12/25 04:38:49;;;;;;;1.15;0.70;;;11.70;99.90;;;;;;5101210;28;20043;-71
2023/12/25 04:41:20;;;;;;;3.83;1.67;;;11.80;99.80;;;;;;5101192;28;20027;-71
2023/12/25 04:43:46;;;;;;;0.77;0.60;;;11.90;99.00;;;;;;5101331;28;20204;-71
2023/12/25 04:46:12;;;;;;;2.83;0.60;;;12.20;99.90;;;;;;5108948;28;20160;-71
2023/12/25 04:48:37;;;;;;;1.25;0.60;;;12.60;99.30;;;;;;5120975;28;20031;-71
2023/12/25 04:51:03;;;;;;;1.83;0.68;;;12.20;95.60;;;;;;5103082;28;20288;-72
2023/12/25 04:53:29;;;;;;;2.65;0.73;;;12.30;95.20;;;;;;5121402;28;20026;-72
2023/12/25 04:55:56;;;;;;;1.80;0.60;;;12.30;97.50;;;;;;5120738;28;20031;-72
2023/12/25 04:58:21;;;;;;;0.52;0.32;;;12.30;94.00;;;;;;5121295;28;20046;-72
2023/12/25 05:00:47;;;;;;;1.95;0.47;;;12.40;93.30;;;;;;5120810;28;20022;-71
2023/12/25 05:03:13;;;;;;;0.82;0.52;;;12.50;92.70;;;;;;5121002;28;20030;-71
2023/12/25 05:05:38;;;;;;;1.52;0.60;;;12.60;91.90;;;;;;5103644;28;20024;-70
2023/12/25 05:08:04;;;;;;;1.00;0.60;;;12.60;94.90;;;;;;5069182;28;20051;-69
2023/12/25 05:10:30;;;;;;;1.88;0.52;;;12.70;94.60;;;;;;5062520;28;20217;-70
2023/12/25 05:12:55;;;;;;;0.57;0.30;;;12.60;91.00;;;;;;5080620;28;20066;-71
2023/12/25 05:15:21;;;;;;;1.65;0.55;;;12.70;93.40;;;;;;5080310;28;20338;-72
2023/12/25 05:17:47;;;;;;;0.43;0.40;;;12.70;89.80;;;;;;5080374;28;20057;-72
2023/12/25 05:20:13;;;;;;;0.50;0.50;;;12.70;89.00;;;;;;5080361;28;20034;-71
2023/12/25 05:22:38;;;;;;;0.75;0.60;;;12.70;89.20;;;;;;5080600;28;20021;-72
2023/12/25 05:25:05;;;;;;;3.17;0.60;;;12.70;87.60;;;;;;5080388;28;20024;-71
2023/12/25 05:27:30;;;;;;;0.90;0.40;;;12.70;92.40;;;;;;5062419;28;20016;-71
2023/12/25 05:29:56;;;;;;;1.75;0.60;;;12.70;87.50;;;;;;5080688;28;20384;-72
2023/12/25 05:32:22;;;;;;;1.45;0.90;;;12.80;87.00;;;;;;5069351;28;20238;-73
2023/12/25 05:34:47;;;;;;;1.35;0.60;;;12.80;86.90;;;;;;5100375;28;20148;-73
2023/12/25 05:37:13;;;;;;;1.35;1.10;;;12.70;86.90;;;;;;5100488;28;20032;-73
2023/12/25 05:39:39;;;;;;;1.13;0.68;;;12.70;87.50;;;;;;5100343;28;20130;-73
2023/12/25 05:42:05;;;;;;;3.22;0.60;;;12.60;87.80;;;;;;5100492;28;20024;-73
2023/12/25 05:44:30;;;;;;;1.45;0.38;;;12.80;92.40;;;;;;5100282;28;20020;-72
2023/12/25 05:46:56;;;;;;;1.65;0.88;;;12.60;92.50;;;;;;5100628;28;20312;-71
2023/12/25 05:49:21;;;;;;;0.55;0.55;;;12.80;92.70;;;;;;5100758;28;20023;-72
2023/12/25 05:51:47;;;;;;;0.80;0.55;;;12.50;92.20;;;;;;5100296;28;20028;-72
2023/12/25 05:54:13;;;;;;;3.92;0.82;;;12.60;87.40;;;;;;5100414;28;20079;-72
2023/12/25 05:56:38;;;;;;;1.00;0.80;;;12.60;86.90;;;;;;5100126;28;20028;-72
2023/12/25 05:59:05;;;;;;;1.15;0.57;;;12.60;87.00;;;;;;5100357;28;20042;-73
2023/12/25 06:01:30;;;;;;;0.88;0.80;;;12.60;85.30;;;;;;5100265;28;20028;-72
2023/12/25 06:03:57;;;;;;;2.30;0.75;;;12.60;86.20;;;;;;5082226;28;20089;-73
2023/12/25 06:06:23;;;;;;;0.98;0.63;;;12.80;91.60;;;;;;5100269;28;20024;-73
2023/12/25 06:08:48;;;;;;;1.10;0.90;;;12.70;91.50;;;;;;5079102;28;20017;-72
2023/12/25 06:11:14;;;;;;;0.90;0.60;;;12.60;86.30;;;;;;5087990;28;20094;-72
2023/12/25 06:13:40;;;;;;;1.17;0.52;;;12.60;86.40;;;;;;5083867;28;20021;-72
2023/12/25 06:16:06;;;;;;;1.13;0.55;;;12.60;86.70;;;;;;5065446;28;20082;-73
2023/12/25 06:18:31;;;;;;;2.05;0.70;;;12.50;86.70;;;;;;5083484;28;20039;-72
2023/12/25 06:20:57;;;;;;;1.60;0.80;;;12.50;86.50;;;;;;5083043;28;20316;-73
2023/12/25 06:23:23;;;;;;;2.20;0.68;;;12.50;91.90;;;;;;5065005;28;20083;-73
2023/12/25 06:25:50;;;;;;;3.30;1.35;;;12.50;87.00;;;;;;5082938;28;20040;-73
2023/12/25 06:28:16;;;;;;;0.73;0.60;;;12.30;91.80;;;;;;5064855;28;20029;-73
2023/12/25 06:30:41;;;;;;;0.70;0.63;;;12.40;87.00;;;;;;5083073;28;20032;-73
2023/12/25 06:33:07;;;;;;;1.00;0.60;;;12.40;87.10;;;;;;5083233;28;20052;-73
2023/12/25 06:35:33;;;;;;;2.47;0.55;;;12.40;87.10;;;;;;5083261;28;20037;-72
2023/12/25 06:37:58;;;;;;;2.95;0.80;;;12.40;91.60;;;;;;5083119;28;20212;-73
2023/12/25 06:40:24;;;;;;;1.00;0.80;;;12.40;91.80;;;;;;5083155;28;20024;-74
2023/12/25 06:42:50;;;;;;;0.95;0.63;;;12.10;91.40;;;;;;5083088;28;20024;-74
2023/12/25 06:45:16;;;;;;;1.00;0.90;;;;;;;;;;5065163;28;20232;-77
2023/12/25 06:47:41;;;;;;;1.50;0.93;;;12.30;86.10;;;;;;5083034;28;20043;-76
2023/12/25 06:50:07;;;;;;;1.33;1.02;;;12.10;91.70;;;;;;5083026;28;20016;-73
2023/12/25 06:52:33;;;;;;;2.05;0.60;;;12.10;91.80;;;;;;5082751;28;20248;-76
2023/12/25 06:54:59;;;;;;;1.50;0.73;;;12.20;87.00;;;;;;5082890;28;20059;-76
2023/12/25 06:57:24;;;;;;;3.33;0.90;;;12.20;86.70;;;;;;5082697;28;20036;-74
2023/12/25 06:59:50;;;;;;;1.23;0.70;;;12.20;86.60;;;;;;5082829;28;20016;-73
2023/12/25 07:02:16;;;;;;;0.90;0.75;;;12.20;86.10;;;;;;5082828;28;20031;-73
2023/12/25 07:04:42;;;;;;;3.13;1.20;;;11.90;91.70;;;;;;5082589;28;20090;-72
2023/12/25 07:07:09;;;;;;;3.67;0.90;;;12.00;91.60;;;;;;5082554;28;20370;-74
2023/12/25 07:09:35;;;;;;;1.40;0.70;;;12.10;91.60;;;;;;5082594;28;20017;-74
2023/12/25 07:12:02;;;;;;;2.78;1.02;;;12.40;91.90;;;;;;5082414;28;20053;-74
2023/12/25 07:14:28;;;;;;;2.65;0.57;;;12.10;86.70;;;;;;5067195;28;20017;-74
2023/12/25 07:16:53;;;;;;;1.27;0.93;;;12.10;86.70;;;;;;5091107;28;20111;-74
2023/12/25 07:19:19;;;;;;;0.95;0.70;;;12.20;91.50;;;;;;5082347;28;20389;-75
2023/12/25 07:21:45;;;;;;;0.75;0.52;;;11.90;91.10;;;;;;5082508;28;20119;-83
2023/12/25 07:24:10;;;;;;;0.63;0.63;;;12.10;85.70;;;;;;5082608;28;20304;-81
2023/12/25 07:26:36;;;;;;;1.00;0.65;;;12.20;84.70;;;;;;5082978;28;20028;-76
2023/12/25 07:29:02;;;;;;;1.20;0.60;;;12.30;84.30;;;;;;5082474;28;20051;-76
2023/12/25 07:31:28;;;;;;;1.38;0.65;;;12.40;82.60;;;;;;5064081;28;20052;-73
2023/12/25 07:33:54;;;;;;;2.22;0.73;;;;;;;;;;5082014;28;20217;-72
2023/12/25 07:36:20;;;;;;;2.33;0.73;;;12.40;82.60;;;;;;5081813;28;20352;-74
2023/12/25 07:38:45;;;;;;;1.65;0.60;;;12.50;82.40;;;;;;5082412;28;20087;-74
2023/12/25 07:41:11;;;;;;;1.63;0.82;;;12.60;82.00;;;;;;5081762;28;20020;-72
2023/12/25 07:43:38;;;;;;;2.10;0.60;;;12.60;80.90;;;;;;5063822;28;20647;-73
2023/12/25 07:46:08;;;;;;;0.60;0.60;;;12.70;81.40;;;;;;5081569;28;20340;-73
2023/12/25 07:48:34;;;;;;;0.75;0.65;;;12.70;81.30;;;;;;5084166;28;20052;-72
2023/12/25 07:51:00;;;;;;;1.60;0.90;;;12.70;81.30;;;;;;5091437;28;20320;-73
2023/12/25 07:53:26;;;;;;;0.75;0.73;;;12.80;88.20;;;;;;5092261;28;20035;-75
2023/12/25 07:55:51;;;;;;;0.88;0.75;;;12.70;81.00;;;;;;5065703;28;20107;-74
2023/12/25 07:58:17;;;;;;;1.52;0.80;;;12.80;81.40;;;;;;5063630;28;20371;-75
2023/12/25 08:00:43;;;;;;;4.75;1.23;;;12.80;81.60;;;;;;5082032;28;20029;-75
2023/12/25 08:03:10;;;;;;;2.45;1.50;;;12.80;81.30;;;;;;5081588;28;20023;-74
2023/12/25 08:05:36;;;;;;;0.75;0.75;;;12.80;81.50;;;;;;5081666;28;20023;-73
2023/12/25 08:08:02;;;;;;;3.08;0.80;;;13.00;88.70;;;;;;5081737;28;20020;-73
2023/12/25 08:10:28;;;;;;;1.35;0.50;;;12.80;81.90;;;;;;5081430;28;20075;-73
2023/12/25 08:12:54;;;;;;;3.22;0.98;;;12.80;88.70;;;;;;5063423;28;20080;-73
2023/12/25 08:15:20;;;;;;;1.27;0.82;;;12.90;88.50;;;;;;5081190;28;20024;-74
2023/12/25 08:17:46;;;;;;;0.57;0.57;;;;;;;;;;5063742;28;20374;-72
2023/12/25 08:20:12;;;;;;;0.98;0.65;;;12.90;81.40;;;;;;5063142;28;20027;-71
2023/12/25 08:22:37;;;;;;;1.08;0.70;;;12.90;80.10;;;;;;5062971;28;20021;-72
2023/12/25 08:25:04;;;;;;;2.10;0.93;;;12.90;80.90;;;;;;5081122;28;20074;-72
2023/12/25 08:27:30;;;;;;;2.35;1.08;;;12.90;80.60;;;;;;5099366;28;20041;-72
2023/12/25 08:29:56;;;;;;;2.38;1.35;;;12.90;86.30;;;;;;5101484;28;20060;-73
2023/12/25 08:32:21;;;;;;;1.73;1.15;;;13.00;80.10;;;;;;5101209;28;20028;-72
2023/12/25 08:34:47;;;;;;;1.30;0.70;;;13.00;79.90;;;;;;5100595;28;20220;-73
2023/12/25 08:37:13;;;;;;;1.27;0.85;;;13.10;85.70;;;;;;5088217;28;20036;-75
2023/12/25 08:39:38;;;;;;;2.58;1.10;;;13.10;79.60;;;;;;5089074;28;20224;-75
2023/12/25 08:42:05;;;;;;;2.20;1.50;;;;;;;;;;5081239;28;20028;-74
2023/12/25 08:44:32;;;;;;;2.83;1.00;;;13.20;77.70;;;;;;5080836;28;20586;-76
2023/12/25 08:46:58;;;;;;;4.70;1.15;;;13.20;76.40;;;;;;5081024;28;20066;-74
2023/12/25 08:49:25;;;;;;;2.83;1.13;;;13.30;83.40;;;;;;5081092;28;20083;-74
2023/12/25 08:51:51;;;;;;;3.17;1.50;;;13.20;76.80;;;;;;5080368;28;20044;-74
2023/12/25 08:54:17;;;;;;;1.92;1.50;;;13.20;75.70;;;;;;5092253;28;20435;-75
2023/12/25 08:56:43;;;;;;;1.95;1.30;;;13.20;76.30;;;;;;5080677;28;20081;-74
2023/12/25 08:59:09;;;;;;;2.03;1.10;;;13.20;76.00;;;;;;5080656;28;20025;-75
2023/12/25 09:01:35;;;;;;;3.30;1.23;;;;;;;;;;5062722;28;20034;-75
2023/12/25 09:04:01;;;;;;;1.77;1.27;;;13.10;82.20;;;;;;5080561;28;20344;-74
2023/12/25 09:06:27;;;;;;;2.95;1.35;;;13.10;74.80;;;;;;5062716;28;20035;-74
2023/12/25 09:08:53;;;;;;;1.95;1.25;;;13.10;75.00;;;;;;5080573;28;20060;-77
2023/12/25 09:11:18;;;;;;;1.60;1.25;;;13.10;76.00;;;;;;5080420;28;20067;-70
2023/12/25 09:13:45;;;;;;;1.23;0.98;;;12.90;82.20;;;;;;5080419;28;20025;-72
2023/12/25 09:16:11;;;;;;;2.00;1.30;;;12.90;74.90;;;;;;5080465;28;20056;-70
2023/12/25 09:18:36;;;;;;;1.23;1.00;;;12.90;75.80;;;;;;5080084;28;20216;-70
2023/12/25 09:21:02;;;;;;;1.25;1.00;;;12.80;82.70;;;;;;5079240;28;20096;-70
2023/12/25 09:23:29;;;;;;;1.85;1.00;;;12.90;76.40;;;;;;5079682;28;20021;-70
2023/12/25 09:25:56;;;;;;;3.35;1.50;;;12.70;82.80;;;;;;5080478;28;20063;-71
2023/12/25 09:28:22;;;;;;;1.88;1.27;;;12.80;76.30;;;;;;5080585;28;20024;-71
2023/12/25 09:30:48;;;;;;;1.17;1.00;;;12.80;76.40;;;;;;5079550;28;20028;-71
2023/12/25 09:33:14;;;;;;;4.25;1.30;;;12.80;76.40;;;;;;5079930;28;20012;-71
2023/12/25 09:35:40;;;;;;;3.33;1.27;;;12.80;76.00;;;;;;5078985;28;20024;-71
2023/12/25 09:38:06;;;;;;;2.22;1.15;;;12.80;75.90;;;;;;5081042;28;20029;-71
2023/12/25 09:40:32;;;;;;;2.53;1.30;;;12.80;76.00;;;;;;5099729;28;20015;-71
2023/12/25 09:43:03;;;;;;;2.17;1.00;;;12.80;76.10;;;;;;5100338;28;20028;-71
2023/12/25 09:45:37;;;;;;;1.60;1.02;;;12.90;76.20;;;;;;5101053;28;20012;-71
2023/12/25 09:48:07;;;;;;;1.20;1.10;;;12.90;75.80;;;;;;5104550;28;20051;-70
2023/12/25 09:50:36;;;;;;;2.47;1.27;;;12.90;75.50;;;;;;5104344;28;20020;-70
2023/12/25 09:53:02;;;;;;;3.38;1.10;;;12.90;75.30;;;;;;5104311;28;20081;-70
2023/12/25 09:55:28;;;;;;;1.73;0.93;;;12.90;75.30;;;;;;5104217;28;20027;-70
2023/12/25 09:57:56;;;;;;;1.00;0.85;;;12.90;74.90;;;;;;5104319;28;20028;-73
2023/12/25 10:00:22;;;;;;;3.15;1.08;;;12.90;74.90;;;;;;5099393;28;20031;-73
2023/12/25 10:02:50;;;;;;;1.65;1.13;;;12.90;74.10;;;;;;5103663;28;20227;-74
2023/12/25 10:05:18;;;;;;;1.35;0.95;;;12.90;75.10;;;;;;5103815;28;20004;-73
2023/12/25 10:07:44;;;;;;;1.67;1.40;;;12.80;80.80;;;;;;5103763;28;20330;-73
2023/12/25 10:10:10;;;;;;;1.98;1.38;;;12.90;75.10;;;;;;5103614;28;20012;-73
2023/12/25 10:12:35;;;;;;;9.70;1.23;;;12.90;75.00;;;;;;5103417;28;20132;-73
2023/12/25 10:15:04;;;;;;;3.05;1.00;;;12.90;73.60;;;;;;5103695;28;20034;-72
2023/12/25 10:17:29;;;;;;;2.42;1.38;;;13.00;73.10;;;;;;5100267;28;20134;-73
2023/12/25 10:19:55;;;;;;;2.08;1.55;;;13.00;72.90;;;;;;5103361;28;20024;-73
2023/12/25 10:22:47;;;;;;;2.25;1.08;;;13.00;72.80;;;;;;5102132;28;20323;-73
2023/12/25 10:25:15;;;;;;;2.70;1.35;;;13.10;71.60;;;;;;5089661;28;20436;-72
2023/12/25 10:27:43;;;;;;;1.30;0.93;;;13.00;71.10;;;;;;5088934;28;20031;-73
2023/12/25 10:30:20;;;;;;;2.10;1.25;;;13.10;70.70;;;;;;5094376;28;20328;-73
2023/12/25 10:32:47;;;;;;;1.58;0.90;;;13.10;70.50;;;;;;5083514;28;20301;-73
2023/12/25 10:35:15;;;;;;;2.05;1.30;;;13.10;70.50;;;;;;5083279;28;20021;-73
2023/12/25 10:37:42;;;;;;;1.92;1.35;;;13.10;70.10;;;;;;5083323;28;20028;-72
2023/12/25 10:40:21;;;;;;;3.78;1.25;;;13.10;70.20;;;;;;5082088;28;20078;-72
2023/12/25 10:42:49;;;;;;;3.03;1.48;;;13.10;69.80;;;;;;5082990;28;20021;-73
2023/12/25 10:45:21;;;;;;;4.82;1.40;;;13.10;75.20;;;;;;5086177;28;20024;-74
2023/12/25 10:47:49;;;;;;;2.40;1.92;;;13.10;75.30;;;;;;5103152;28;20232;-73
2023/12/25 10:50:15;;;;;;;2.45;1.48;;;13.10;69.70;;;;;;5103254;28;20056;-73
2023/12/25 10:52:43;;;;;;;2.20;1.38;;;13.10;70.10;;;;;;5103268;28;20085;-73
2023/12/25 10:55:09;;;;;;;1.45;1.33;;;13.10;70.20;;;;;;5102975;28;20028;-73
2023/12/25 10:57:35;;;;;;;4.28;0.85;;;13.10;69.60;;;;;;5102533;28;20032;-73
2023/12/25 11:00:04;;;;;;;2.53;1.30;;;13.10;68.70;;;;;;5102785;28;20113;-73
2023/12/25 11:02:35;;;;;;;2.70;1.02;;;13.20;66.30;;;;;;5102797;28;20035;-73
2023/12/25 11:05:02;;;;;;;1.48;0.75;;;13.20;66.80;;;;;;5103116;28;20055;-73
2023/12/25 11:07:29;;;;;;;2.10;0.93;;;13.30;65.80;;;;;;5102710;28;20043;-73
2023/12/25 11:09:56;;;;;;;1.52;1.10;;;13.40;65.10;;;;;;5087303;28;20037;-72
2023/12/25 11:12:23;;;;;;;1.42;0.90;;;13.50;69.40;;;;;;5082375;28;20059;-73
2023/12/25 11:14:49;;;;;;;1.58;1.00;;;13.50;63.70;;;;;;5066581;28;20336;-73
2023/12/25 11:17:15;;;;;;;2.35;0.60;;;13.50;63.80;;;;;;5082340;28;20055;-72
2023/12/25 11:19:41;;;;;;;1.42;1.05;;;13.60;69.90;;;;;;5082358;28;20021;-71
2023/12/25 11:22:30;;;;;;;1.70;1.30;;;13.50;64.50;;;;;;5080892;28;20088;-71
2023/12/25 11:25:00;;;;;;;2.28;1.02;;;13.60;64.70;;;;;;5082473;28;20024;-71
2023/12/25 11:27:29;;;;;;;2.78;1.63;;;13.60;70.00;;;;;;5082379;28;20024;-71
2023/12/25 11:30:07;;;;;;;2.20;1.40;;;13.60;64.50;;;;;;5082042;28;20024;-71
2023/12/25 11:32:36;;;;;;;2.85;1.60;;;13.60;64.50;;;;;;5082073;28;20611;-72
2023/12/25 11:35:03;;;;;;;2.95;1.70;;;13.70;64.60;;;;;;5082327;28;20028;-73
2023/12/25 11:37:29;;;;;;;2.72;1.20;;;13.70;65.30;;;;;;5081792;28;20032;-72
2023/12/25 11:40:05;;;;;;;3.40;1.40;;;13.50;71.60;;;;;;5082163;28;20028;-72
2023/12/25 11:42:35;;;;;;;2.42;1.33;;;13.60;65.90;;;;;;5081874;28;20326;-72
2023/12/25 11:45:10;;;;;;;3.10;1.77;;;13.50;66.20;;;;;;5081752;28;20328;-73
2023/12/25 11:47:40;;;;;;;2.40;1.40;;;13.50;66.70;;;;;;5082031;28;20055;-71
2023/12/25 11:50:10;;;;;;;10.65;1.70;;;13.40;66.80;;;;;;5081814;28;20104;-73
2023/12/25 11:52:56;;;;;;;2.38;1.45;;;13.30;66.20;;;;;;5082151;28;20032;-71
2023/12/25 11:55:25;;;;;;;2.88;1.40;;;13.30;66.80;;;;;;5081571;28;20031;-72
2023/12/25 11:57:51;;;;;;;2.40;1.63;;;13.30;67.10;;;;;;5081695;28;20146;-72
2023/12/25 12:00:25;;;;;;;3.47;1.75;;;13.30;66.70;;;;;;5081474;28;20028;-72
2023/12/25 12:02:52;;;;;;;4.40;1.73;;;13.30;66.40;;;;;;5081404;28;20020;-71
2023/12/25 12:05:18;;;;;;;2.05;1.48;;;13.20;67.10;;;;;;5081393;28;20023;-72
2023/12/25 12:07:44;;;;;;;3.85;1.75;;;13.20;67.10;;;;;;5081543;28;20161;-72
2023/12/25 12:10:11;;;;;;;2.95;1.75;;;13.20;67.30;;;;;;5080597;28;20334;-71
2023/12/25 12:12:37;;;;;;;4.15;1.92;;;13.20;67.10;;;;;;5079783;28;20351;-71
2023/12/25 12:15:04;;;;;;;7.20;1.90;;;13.20;67.20;;;;;;5081098;28;20083;-70
2023/12/25 12:17:31;;;;;;;2.72;1.92;;;13.20;67.50;;;;;;5081199;28;20322;-70
2023/12/25 12:19:56;;;;;;;3.75;1.77;;;13.20;67.60;;;;;;5081332;28;20028;-71
2023/12/25 12:22:23;;;;;;;4.30;2.17;;;13.20;67.50;;;;;;5081455;28;20028;-72
2023/12/25 12:24:49;;;;;;;4.05;1.67;;;13.10;67.70;;;;;;5081052;28;20036;-71
2023/12/25 12:27:21;;;;;;;3.25;1.55;;;13.00;72.80;;;;;;5081271;28;20032;-72
2023/12/25 12:29:48;;;;;;;3.22;1.70;;;13.10;66.90;;;;;;5081017;28;20024;-71
2023/12/25 12:32:14;;;;;;;3.58;1.60;;;13.20;67.10;;;;;;5081203;28;20087;-71
2023/12/25 12:34:40;;;;;;;5.00;1.90;;;13.20;66.90;;;;;;5080832;28;20073;-73
2023/12/25 12:37:07;;;;;;;3.65;1.58;;;13.20;67.10;;;;;;5081008;28;20099;-71
2023/12/25 12:39:33;;;;;;;3.78;1.75;;;13.20;67.60;;;;;;5079614;28;20025;-70
2023/12/25 12:41:59;;;;;;;6.38;1.70;;;13.20;67.30;;;;;;5080826;28;20028;-71
2023/12/25 12:44:27;;;;;;;4.70;2.10;;;13.10;67.30;;;;;;5079493;28;20028;-71
2023/12/25 12:46:53;;;;;;;4.90;1.83;;;13.10;67.20;;;;;;5080644;28;20257;-71
2023/12/25 12:49:22;;;;;;;4.82;1.23;;;13.00;72.30;;;;;;5081009;28;20208;-71
2023/12/25 12:51:48;;;;;;;2.83;1.15;;;13.20;66.80;;;;;;5080556;28;20032;-71